Terminal Aerodrome Forecast
Issued by NWS Wilmington, OH

Current Version | Previous Version | Graphics & Text | Print | Product List | Glossary On
Versions: 1 2 3 4 5 6 7 8 9 10 11 12 13 14 15 16 17 18 19 20 21 22 23
000
FTUS41 KILN 152000 AAA
TAFILN
TAF AMD
KILN 152021Z 1520/1618 23006KT P6SM VCSH SCT040 OVC060
     FM152200 25006KT P6SM -SHRA OVC040
      TEMPO 1522/1601 4SM SHRA
     FM160100 28008KT P6SM VCSH OVC040
     FM160300 33006KT P6SM VCSH FEW008 BKN025
     FM160700 35008KT 4SM BR BKN008
     FM161400 35010KT P6SM BKN012
     FM161700 34008KT P6SM SCT025=

USA.gov is the U.S. government's official web portal to all federal, state and local government web resources and services.